sensor_id;sensor_type;location;lat;lon;timestamp;temperature;humidity
6988;DHT22;3534;49.960;8.018;2022-10-20T00:00:30;14.00;99.90
6988;DHT22;3534;49.960;8.018;2022-10-20T00:02:57;14.00;99.90
6988;DHT22;3534;49.960;8.018;2022-10-20T00:05:24;13.90;99.90
6988;DHT22;3534;49.960;8.018;2022-10-20T00:07:50;13.90;99.90
6988;DHT22;3534;49.960;8.018;2022-10-20T00:10:17;13.90;99.90
6988;DHT22;3534;49.960;8.018;2022-10-20T00:12:44;13.90;99.90
6988;DHT22;3534;49.960;8.018;2022-10-20T00:15:12;13.90;99.90
6988;DHT22;3534;49.960;8.018;2022-10-20T00:17:38;13.90;99.90
6988;DHT22;3534;49.960;8.018;2022-10-20T00:20:06;13.90;99.90
6988;DHT22;3534;49.960;8.018;2022-10-20T00:22:33;13.80;99.90
6988;DHT22;3534;49.960;8.018;2022-10-20T00:25:00;13.80;99.90
6988;DHT22;3534;49.960;8.018;2022-10-20T00:27:26;13.80;99.90
6988;DHT22;3534;49.960;8.018;2022-10-20T00:29:53;13.80;99.90
6988;DHT22;3534;49.960;8.018;2022-10-20T00:32:21;13.80;99.90
6988;DHT22;3534;49.960;8.018;2022-10-20T00:34:48;13.80;99.90
6988;DHT22;3534;49.960;8.018;2022-10-20T00:37:15;13.80;99.90
6988;DHT22;3534;49.960;8.018;2022-10-20T00:39:41;13.70;99.90
6988;DHT22;3534;49.960;8.018;2022-10-20T00:42:10;13.70;99.90
6988;DHT22;3534;49.960;8.018;2022-10-20T00:44:52;13.70;99.90
6988;DHT22;3534;49.960;8.018;2022-10-20T00:47:29;13.70;99.90
6988;DHT22;3534;49.960;8.018;2022-10-20T00:49:58;13.70;99.90
6988;DHT22;3534;49.960;8.018;2022-10-20T00:52:28;13.70;99.90
6988;DHT22;3534;49.960;8.018;2022-10-20T00:54:54;13.70;99.90
6988;DHT22;3534;49.960;8.018;2022-10-20T00:57:21;13.70;99.90
6988;DHT22;3534;49.960;8.018;2022-10-20T00:59:48;13.70;99.90
6988;DHT22;3534;49.960;8.018;2022-10-20T01:02:15;13.70;99.90
6988;DHT22;3534;49.960;8.018;2022-10-20T01:04:43;13.60;99.90
6988;DHT22;3534;49.960;8.018;2022-10-20T01:07:10;13.60;99.90
6988;DHT22;3534;49.960;8.018;2022-10-20T01:09:37;13.60;99.90
6988;DHT22;3534;49.960;8.018;2022-10-20T01:12:12;13.60;99.90
6988;DHT22;3534;49.960;8.018;2022-10-20T01:14:45;13.60;99.90
6988;DHT22;3534;49.960;8.018;2022-10-20T01:17:20;13.60;99.90
6988;DHT22;3534;49.960;8.018;2022-10-20T01:20:15;13.50;99.90
6988;DHT22;3534;49.960;8.018;2022-10-20T01:23:10;13.50;99.90
6988;DHT22;3534;49.960;8.018;2022-10-20T01:25:53;13.60;99.90
6988;DHT22;3534;49.960;8.018;2022-10-20T01:28:29;13.50;99.90
6988;DHT22;3534;49.960;8.018;2022-10-20T01:31:02;13.50;99.90
6988;DHT22;3534;49.960;8.018;2022-10-20T01:33:37;13.50;99.90
6988;DHT22;3534;49.960;8.018;2022-10-20T01:36:12;13.50;99.90
6988;DHT22;3534;49.960;8.018;2022-10-20T01:38:42;13.50;99.90
6988;DHT22;3534;49.960;8.018;2022-10-20T01:41:15;13.50;99.90
6988;DHT22;3534;49.960;8.018;2022-10-20T01:43:45;13.50;99.90
6988;DHT22;3534;49.960;8.018;2022-10-20T01:46:15;13.50;99.90
6988;DHT22;3534;49.960;8.018;2022-10-20T01:48:43;13.50;99.90
6988;DHT22;3534;49.960;8.018;2022-10-20T01:51:11;13.40;99.90
6988;DHT22;3534;49.960;8.018;2022-10-20T01:53:38;13.40;99.90
6988;DHT22;3534;49.960;8.018;2022-10-20T01:56:06;13.40;99.90
6988;DHT22;3534;49.960;8.018;2022-10-20T01:58:53;13.40;99.90
6988;DHT22;3534;49.960;8.018;2022-10-20T02:01:30;13.30;99.90
6988;DHT22;3534;49.960;8.018;2022-10-20T02:04:00;13.30;99.90
6988;DHT22;3534;49.960;8.018;2022-10-20T02:06:34;13.30;99.90
6988;DHT22;3534;49.960;8.018;2022-10-20T02:09:03;13.30;99.90
6988;DHT22;3534;49.960;8.018;2022-10-20T02:11:38;13.30;99.90
6988;DHT22;3534;49.960;8.018;2022-10-20T02:14:10;13.30;99.90
6988;DHT22;3534;49.960;8.018;2022-10-20T02:16:41;13.20;99.90
6988;DHT22;3534;49.960;8.018;2022-10-20T02:19:10;13.20;99.90
6988;DHT22;3534;49.960;8.018;2022-10-20T02:21:38;13.20;99.90
6988;DHT22;3534;49.960;8.018;2022-10-20T02:24:07;13.20;99.90
6988;DHT22;3534;49.960;8.018;2022-10-20T02:26:36;13.20;99.90
6988;DHT22;3534;49.960;8.018;2022-10-20T02:29:12;13.10;99.90
6988;DHT22;3534;49.960;8.018;2022-10-20T02:31:39;13.10;99.90
6988;DHT22;3534;49.960;8.018;2022-10-20T02:34:06;13.10;99.90
6988;DHT22;3534;49.960;8.018;2022-10-20T02:36:37;13.10;99.90
6988;DHT22;3534;49.960;8.018;2022-10-20T02:39:04;13.10;99.90
6988;DHT22;3534;49.960;8.018;2022-10-20T02:41:31;13.10;99.90
6988;DHT22;3534;49.960;8.018;2022-10-20T02:43:57;13.10;99.90
6988;DHT22;3534;49.960;8.018;2022-10-20T02:46:26;13.10;99.90
6988;DHT22;3534;49.960;8.018;2022-10-20T02:48:52;13.10;99.90
6988;DHT22;3534;49.960;8.018;2022-10-20T02:51:19;13.10;99.90
6988;DHT22;3534;49.960;8.018;2022-10-20T02:53:46;13.00;99.90
6988;DHT22;3534;49.960;8.018;2022-10-20T02:56:14;13.00;99.90
6988;DHT22;3534;49.960;8.018;2022-10-20T02:58:40;13.10;99.90
6988;DHT22;3534;49.960;8.018;2022-10-20T03:01:07;13.00;99.90
6988;DHT22;3534;49.960;8.018;2022-10-20T03:03:35;13.00;99.90
6988;DHT22;3534;49.960;8.018;2022-10-20T03:06:07;13.00;99.90
6988;DHT22;3534;49.960;8.018;2022-10-20T03:08:33;13.00;99.90
6988;DHT22;3534;49.960;8.018;2022-10-20T03:11:00;13.00;99.90
6988;DHT22;3534;49.960;8.018;2022-10-20T03:13:27;13.10;99.90
6988;DHT22;3534;49.960;8.018;2022-10-20T03:15:53;13.10;99.90
6988;DHT22;3534;49.960;8.018;2022-10-20T03:18:20;13.10;99.90
6988;DHT22;3534;49.960;8.018;2022-10-20T03:20:50;13.10;99.90
6988;DHT22;3534;49.960;8.018;2022-10-20T03:23:18;13.00;99.90
6988;DHT22;3534;49.960;8.018;2022-10-20T03:25:44;13.00;99.90
6988;DHT22;3534;49.960;8.018;2022-10-20T03:28:11;13.00;99.90
6988;DHT22;3534;49.960;8.018;2022-10-20T03:30:38;12.90;99.90
6988;DHT22;3534;49.960;8.018;2022-10-20T03:33:04;12.90;99.90
6988;DHT22;3534;49.960;8.018;2022-10-20T03:35:31;12.90;99.90
6988;DHT22;3534;49.960;8.018;2022-10-20T03:37:59;12.90;99.90
6988;DHT22;3534;49.960;8.018;2022-10-20T03:40:26;12.90;99.90
6988;DHT22;3534;49.960;8.018;2022-10-20T03:42:52;12.90;99.90
6988;DHT22;3534;49.960;8.018;2022-10-20T03:45:19;12.90;99.90
6988;DHT22;3534;49.960;8.018;2022-10-20T03:47:46;12.90;99.90
6988;DHT22;3534;49.960;8.018;2022-10-20T03:50:12;12.90;99.90
6988;DHT22;3534;49.960;8.018;2022-10-20T03:52:39;12.90;99.90
6988;DHT22;3534;49.960;8.018;2022-10-20T03:55:08;12.90;99.90
6988;DHT22;3534;49.960;8.018;2022-10-20T03:57:34;12.90;99.90
6988;DHT22;3534;49.960;8.018;2022-10-20T04:00:02;12.90;99.90
6988;DHT22;3534;49.960;8.018;2022-10-20T04:02:32;12.90;99.90
6988;DHT22;3534;49.960;8.018;2022-10-20T04:04:59;12.90;99.90
6988;DHT22;3534;49.960;8.018;2022-10-20T04:07:26;12.90;99.90
6988;DHT22;3534;49.960;8.018;2022-10-20T04:09:53;12.90;99.90
6988;DHT22;3534;49.960;8.018;2022-10-20T04:12:22;12.90;99.90
6988;DHT22;3534;49.960;8.018;2022-10-20T04:14:49;12.90;99.90
6988;DHT22;3534;49.960;8.018;2022-10-20T04:17:16;13.00;99.90
6988;DHT22;3534;49.960;8.018;2022-10-20T04:19:43;13.00;99.90
6988;DHT22;3534;49.960;8.018;2022-10-20T04:22:09;13.00;99.90
6988;DHT22;3534;49.960;8.018;2022-10-20T04:24:36;13.00;99.90
6988;DHT22;3534;49.960;8.018;2022-10-20T04:27:03;13.00;99.90
6988;DHT22;3534;49.960;8.018;2022-10-20T04:29:31;13.00;99.90
6988;DHT22;3534;49.960;8.018;2022-10-20T04:31:58;13.00;99.90
6988;DHT22;3534;49.960;8.018;2022-10-20T04:34:25;12.90;99.90
6988;DHT22;3534;49.960;8.018;2022-10-20T04:36:51;12.90;99.90
6988;DHT22;3534;49.960;8.018;2022-10-20T04:39:18;12.90;99.90
6988;DHT22;3534;49.960;8.018;2022-10-20T04:41:45;12.90;99.90
6988;DHT22;3534;49.960;8.018;2022-10-20T04:44:11;12.90;99.90
6988;DHT22;3534;49.960;8.018;2022-10-20T04:46:40;12.80;99.90
6988;DHT22;3534;49.960;8.018;2022-10-20T04:49:07;12.90;99.90
6988;DHT22;3534;49.960;8.018;2022-10-20T04:51:34;12.80;99.90
6988;DHT22;3534;49.960;8.018;2022-10-20T04:54:01;12.80;99.90
6988;DHT22;3534;49.960;8.018;2022-10-20T04:56:28;12.80;99.90
6988;DHT22;3534;49.960;8.018;2022-10-20T04:58:56;12.80;99.90
6988;DHT22;3534;49.960;8.018;2022-10-20T05:01:24;12.80;99.90
6988;DHT22;3534;49.960;8.018;2022-10-20T05:03:52;12.80;99.90
6988;DHT22;3534;49.960;8.018;2022-10-20T05:06:21;12.80;99.90
6988;DHT22;3534;49.960;8.018;2022-10-20T05:08:49;12.80;99.90
6988;DHT22;3534;49.960;8.018;2022-10-20T05:11:18;12.80;99.90
6988;DHT22;3534;49.960;8.018;2022-10-20T05:13:45;12.70;99.90
6988;DHT22;3534;49.960;8.018;2022-10-20T05:16:12;12.70;99.90
6988;DHT22;3534;49.960;8.018;2022-10-20T05:18:42;12.70;99.90
6988;DHT22;3534;49.960;8.018;2022-10-20T05:21:11;12.70;99.90
6988;DHT22;3534;49.960;8.018;2022-10-20T05:23:39;12.70;99.90
6988;DHT22;3534;49.960;8.018;2022-10-20T05:26:09;12.70;99.90
6988;DHT22;3534;49.960;8.018;2022-10-20T05:28:37;12.70;99.90
6988;DHT22;3534;49.960;8.018;2022-10-20T05:31:05;12.70;99.90
6988;DHT22;3534;49.960;8.018;2022-10-20T05:33:32;12.70;99.90
6988;DHT22;3534;49.960;8.018;2022-10-20T05:35:59;12.70;99.90
6988;DHT22;3534;49.960;8.018;2022-10-20T05:38:32;12.70;99.90
6988;DHT22;3534;49.960;8.018;2022-10-20T05:41:04;12.70;99.90
6988;DHT22;3534;49.960;8.018;2022-10-20T05:43:31;12.70;99.90
6988;DHT22;3534;49.960;8.018;2022-10-20T05:45:58;12.70;99.90
6988;DHT22;3534;49.960;8.018;2022-10-20T05:48:24;12.70;99.90
6988;DHT22;3534;49.960;8.018;2022-10-20T05:50:51;12.70;99.90
6988;DHT22;3534;49.960;8.018;2022-10-20T05:53:18;12.70;99.90
6988;DHT22;3534;49.960;8.018;2022-10-20T05:55:46;12.70;99.90
6988;DHT22;3534;49.960;8.018;2022-10-20T05:58:13;12.70;99.90
6988;DHT22;3534;49.960;8.018;2022-10-20T06:00:39;12.80;99.90
6988;DHT22;3534;49.960;8.018;2022-10-20T06:03:16;12.80;99.90
6988;DHT22;3534;49.960;8.018;2022-10-20T06:05:42;12.80;99.90
6988;DHT22;3534;49.960;8.018;2022-10-20T06:08:09;12.90;99.90
6988;DHT22;3534;49.960;8.018;2022-10-20T06:10:36;12.90;99.90
6988;DHT22;3534;49.960;8.018;2022-10-20T06:13:04;12.90;99.90
6988;DHT22;3534;49.960;8.018;2022-10-20T06:15:31;12.90;99.90
6988;DHT22;3534;49.960;8.018;2022-10-20T06:17:58;12.90;99.90
6988;DHT22;3534;49.960;8.018;2022-10-20T06:20:25;12.90;99.90
6988;DHT22;3534;49.960;8.018;2022-10-20T06:22:51;12.90;99.90
6988;DHT22;3534;49.960;8.018;2022-10-20T06:25:18;12.90;99.90
6988;DHT22;3534;49.960;8.018;2022-10-20T06:27:45;12.90;99.90
6988;DHT22;3534;49.960;8.018;2022-10-20T06:30:13;12.90;99.90
6988;DHT22;3534;49.960;8.018;2022-10-20T06:32:39;12.90;99.90
6988;DHT22;3534;49.960;8.018;2022-10-20T06:35:06;12.80;99.90
6988;DHT22;3534;49.960;8.018;2022-10-20T06:37:33;12.80;99.90
6988;DHT22;3534;49.960;8.018;2022-10-20T06:39:59;12.90;99.90
6988;DHT22;3534;49.960;8.018;2022-10-20T06:42:26;12.90;99.90
6988;DHT22;3534;49.960;8.018;2022-10-20T06:44:53;12.90;99.90
6988;DHT22;3534;49.960;8.018;2022-10-20T06:47:21;12.90;99.90
6988;DHT22;3534;49.960;8.018;2022-10-20T06:49:48;13.00;99.90
6988;DHT22;3534;49.960;8.018;2022-10-20T06:52:15;13.00;99.90
6988;DHT22;3534;49.960;8.018;2022-10-20T06:54:42;13.00;99.90
6988;DHT22;3534;49.960;8.018;2022-10-20T06:57:09;13.00;99.90
6988;DHT22;3534;49.960;8.018;2022-10-20T06:59:35;13.00;99.90
6988;DHT22;3534;49.960;8.018;2022-10-20T07:02:03;13.10;99.90
6988;DHT22;3534;49.960;8.018;2022-10-20T07:04:31;13.10;99.90
6988;DHT22;3534;49.960;8.018;2022-10-20T07:06:57;13.20;99.90
6988;DHT22;3534;49.960;8.018;2022-10-20T07:09:24;13.20;99.90
6988;DHT22;3534;49.960;8.018;2022-10-20T07:11:52;13.20;99.90
6988;DHT22;3534;49.960;8.018;2022-10-20T07:14:18;13.30;99.90
6988;DHT22;3534;49.960;8.018;2022-10-20T07:16:45;13.30;99.90
6988;DHT22;3534;49.960;8.018;2022-10-20T07:19:12;13.30;99.90
6988;DHT22;3534;49.960;8.018;2022-10-20T07:21:40;13.30;99.90
6988;DHT22;3534;49.960;8.018;2022-10-20T07:24:07;13.30;99.90
6988;DHT22;3534;49.960;8.018;2022-10-20T07:26:36;13.30;99.90
6988;DHT22;3534;49.960;8.018;2022-10-20T07:29:03;13.40;99.90
6988;DHT22;3534;49.960;8.018;2022-10-20T07:31:32;13.40;99.90
6988;DHT22;3534;49.960;8.018;2022-10-20T07:34:00;13.40;99.90
6988;DHT22;3534;49.960;8.018;2022-10-20T07:36:29;13.40;99.90
6988;DHT22;3534;49.960;8.018;2022-10-20T07:38:58;13.40;99.90
6988;DHT22;3534;49.960;8.018;2022-10-20T07:41:25;13.50;99.90
6988;DHT22;3534;49.960;8.018;2022-10-20T07:43:53;13.50;99.90
6988;DHT22;3534;49.960;8.018;2022-10-20T07:46:20;13.50;99.90
6988;DHT22;3534;49.960;8.018;2022-10-20T07:48:47;13.50;99.90
6988;DHT22;3534;49.960;8.018;2022-10-20T07:51:24;13.60;99.90
6988;DHT22;3534;49.960;8.018;2022-10-20T07:53:55;13.60;99.90
6988;DHT22;3534;49.960;8.018;2022-10-20T07:56:24;13.70;99.90
6988;DHT22;3534;49.960;8.018;2022-10-20T07:58:51;13.70;99.90
6988;DHT22;3534;49.960;8.018;2022-10-20T08:01:17;13.70;99.90
6988;DHT22;3534;49.960;8.018;2022-10-20T08:03:44;13.80;99.90
6988;DHT22;3534;49.960;8.018;2022-10-20T08:06:11;13.70;99.90
6988;DHT22;3534;49.960;8.018;2022-10-20T08:08:38;13.80;99.90
6988;DHT22;3534;49.960;8.018;2022-10-20T08:11:04;13.90;99.90
6988;DHT22;3534;49.960;8.018;2022-10-20T08:13:33;13.80;99.90
6988;DHT22;3534;49.960;8.018;2022-10-20T08:16:00;13.90;99.90
6988;DHT22;3534;49.960;8.018;2022-10-20T08:18:27;13.90;99.90
6988;DHT22;3534;49.960;8.018;2022-10-20T08:21:05;13.90;99.90
6988;DHT22;3534;49.960;8.018;2022-10-20T08:23:31;14.00;99.90
6988;DHT22;3534;49.960;8.018;2022-10-20T08:25:58;14.00;99.90
6988;DHT22;3534;49.960;8.018;2022-10-20T08:28:25;14.00;99.90
6988;DHT22;3534;49.960;8.018;2022-10-20T08:30:53;14.00;99.90
6988;DHT22;3534;49.960;8.018;2022-10-20T08:33:20;14.00;99.90
6988;DHT22;3534;49.960;8.018;2022-10-20T08:35:46;14.10;99.90
6988;DHT22;3534;49.960;8.018;2022-10-20T08:38:13;14.10;99.90
6988;DHT22;3534;49.960;8.018;2022-10-20T08:40:41;14.20;99.90
6988;DHT22;3534;49.960;8.018;2022-10-20T08:43:12;14.20;99.90
6988;DHT22;3534;49.960;8.018;2022-10-20T08:45:41;14.30;99.90
6988;DHT22;3534;49.960;8.018;2022-10-20T08:48:14;14.30;99.90
6988;DHT22;3534;49.960;8.018;2022-10-20T08:50:43;14.30;99.90
6988;DHT22;3534;49.960;8.018;2022-10-20T08:53:11;14.30;99.90
6988;DHT22;3534;49.960;8.018;2022-10-20T08:55:38;14.40;99.90
6988;DHT22;3534;49.960;8.018;2022-10-20T08:58:09;14.40;99.90
6988;DHT22;3534;49.960;8.018;2022-10-20T09:00:38;14.50;99.90
6988;DHT22;3534;49.960;8.018;2022-10-20T09:03:13;14.50;99.90
6988;DHT22;3534;49.960;8.018;2022-10-20T09:05:42;14.60;99.90
6988;DHT22;3534;49.960;8.018;2022-10-20T09:08:10;14.70;99.90
6988;DHT22;3534;49.960;8.018;2022-10-20T09:10:40;14.70;99.90
6988;DHT22;3534;49.960;8.018;2022-10-20T09:13:13;14.70;99.90
6988;DHT22;3534;49.960;8.018;2022-10-20T09:15:41;14.80;99.90
6988;DHT22;3534;49.960;8.018;2022-10-20T09:18:11;14.80;99.90
6988;DHT22;3534;49.960;8.018;2022-10-20T09:20:43;14.90;99.90
6988;DHT22;3534;49.960;8.018;2022-10-20T09:23:13;14.90;99.90
6988;DHT22;3534;49.960;8.018;2022-10-20T09:25:41;14.90;99.90
6988;DHT22;3534;49.960;8.018;2022-10-20T09:28:19;15.00;99.90
6988;DHT22;3534;49.960;8.018;2022-10-20T09:30:46;15.00;99.90
6988;DHT22;3534;49.960;8.018;2022-10-20T09:33:24;15.10;99.90
6988;DHT22;3534;49.960;8.018;2022-10-20T09:35:52;15.10;99.90
6988;DHT22;3534;49.960;8.018;2022-10-20T09:38:22;15.10;99.90
6988;DHT22;3534;49.960;8.018;2022-10-20T09:40:56;15.10;99.90
6988;DHT22;3534;49.960;8.018;2022-10-20T09:43:25;15.20;99.90
6988;DHT22;3534;49.960;8.018;2022-10-20T09:45:55;15.10;99.90
6988;DHT22;3534;49.960;8.018;2022-10-20T09:48:27;15.20;99.90
6988;DHT22;3534;49.960;8.018;2022-10-20T09:50:56;15.30;99.90
6988;DHT22;3534;49.960;8.018;2022-10-20T09:53:26;15.30;99.90
6988;DHT22;3534;49.960;8.018;2022-10-20T09:55:54;15.40;99.90
6988;DHT22;3534;49.960;8.018;2022-10-20T09:58:25;15.40;99.90
6988;DHT22;3534;49.960;8.018;2022-10-20T10:00:59;15.40;99.90
6988;DHT22;3534;49.960;8.018;2022-10-20T10:03:28;15.40;99.90
6988;DHT22;3534;49.960;8.018;2022-10-20T10:06:18;15.50;99.90
6988;DHT22;3534;49.960;8.018;2022-10-20T10:08:46;15.50;99.90
6988;DHT22;3534;49.960;8.018;2022-10-20T10:11:15;15.50;99.90
6988;DHT22;3534;49.960;8.018;2022-10-20T10:13:43;15.50;99.90
6988;DHT22;3534;49.960;8.018;2022-10-20T10:16:12;15.50;99.90
6988;DHT22;3534;49.960;8.018;2022-10-20T10:18:43;15.50;99.90
6988;DHT22;3534;49.960;8.018;2022-10-20T10:21:12;15.50;99.90
6988;DHT22;3534;49.960;8.018;2022-10-20T10:23:50;15.60;99.90
6988;DHT22;3534;49.960;8.018;2022-10-20T10:26:42;15.60;99.90
6988;DHT22;3534;49.960;8.018;2022-10-20T10:29:23;15.70;99.90
6988;DHT22;3534;49.960;8.018;2022-10-20T10:31:56;15.70;99.90
6988;DHT22;3534;49.960;8.018;2022-10-20T10:34:38;15.80;99.90
6988;DHT22;3534;49.960;8.018;2022-10-20T10:37:10;15.90;99.90
6988;DHT22;3534;49.960;8.018;2022-10-20T10:39:38;16.00;99.90
6988;DHT22;3534;49.960;8.018;2022-10-20T10:44:58;16.10;99.90
6988;DHT22;3534;49.960;8.018;2022-10-20T10:47:49;16.10;99.90
6988;DHT22;3534;49.960;8.018;2022-10-20T10:50:31;16.20;99.90
6988;DHT22;3534;49.960;8.018;2022-10-20T10:53:12;16.20;99.90
6988;DHT22;3534;49.960;8.018;2022-10-20T10:55:47;16.20;99.90
6988;DHT22;3534;49.960;8.018;2022-10-20T10:58:26;16.30;99.90
6988;DHT22;3534;49.960;8.018;2022-10-20T11:01:01;16.30;99.90
6988;DHT22;3534;49.960;8.018;2022-10-20T11:03:47;16.30;99.90
6988;DHT22;3534;49.960;8.018;2022-10-20T11:06:25;16.30;99.90
6988;DHT22;3534;49.960;8.018;2022-10-20T11:09:04;16.30;99.90
6988;DHT22;3534;49.960;8.018;2022-10-20T11:11:42;16.40;99.90
6988;DHT22;3534;49.960;8.018;2022-10-20T11:14:19;16.40;99.90
6988;DHT22;3534;49.960;8.018;2022-10-20T11:16:55;16.40;99.90
6988;DHT22;3534;49.960;8.018;2022-10-20T11:19:49;16.40;99.90
6988;DHT22;3534;49.960;8.018;2022-10-20T11:22:32;16.40;99.90
6988;DHT22;3534;49.960;8.018;2022-10-20T11:25:07;16.40;99.90
6988;DHT22;3534;49.960;8.018;2022-10-20T11:27:38;16.40;99.90
6988;DHT22;3534;49.960;8.018;2022-10-20T11:30:13;16.40;99.90
6988;DHT22;3534;49.960;8.018;2022-10-20T11:32:46;16.40;99.90
6988;DHT22;3534;49.960;8.018;2022-10-20T11:35:20;16.40;99.90
6988;DHT22;3534;49.960;8.018;2022-10-20T11:37:53;16.40;99.90
6988;DHT22;3534;49.960;8.018;2022-10-20T11:40:23;16.40;99.90
6988;DHT22;3534;49.960;8.018;2022-10-20T11:42:58;16.40;99.90
6988;DHT22;3534;49.960;8.018;2022-10-20T11:45:36;16.50;99.90
6988;DHT22;3534;49.960;8.018;2022-10-20T11:48:11;16.50;99.90
6988;DHT22;3534;49.960;8.018;2022-10-20T11:50:40;16.50;99.90
6988;DHT22;3534;49.960;8.018;2022-10-20T11:53:32;16.50;99.90
6988;DHT22;3534;49.960;8.018;2022-10-20T11:59:24;16.50;99.90
6988;DHT22;3534;49.960;8.018;2022-10-20T12:02:24;16.50;99.90
6988;DHT22;3534;49.960;8.018;2022-10-20T12:08:07;16.50;99.90
6988;DHT22;3534;49.960;8.018;2022-10-20T12:10:46;16.50;99.90
6988;DHT22;3534;49.960;8.018;2022-10-20T12:13:27;16.50;99.90
6988;DHT22;3534;49.960;8.018;2022-10-20T12:15:56;16.50;99.90
6988;DHT22;3534;49.960;8.018;2022-10-20T12:18:25;16.50;99.90
6988;DHT22;3534;49.960;8.018;2022-10-20T12:20:55;16.50;99.90
6988;DHT22;3534;49.960;8.018;2022-10-20T12:23:55;16.50;99.90
6988;DHT22;3534;49.960;8.018;2022-10-20T12:29:52;16.50;99.90
6988;DHT22;3534;49.960;8.018;2022-10-20T12:32:24;16.50;99.90
6988;DHT22;3534;49.960;8.018;2022-10-20T12:35:01;16.50;99.90
6988;DHT22;3534;49.960;8.018;2022-10-20T12:37:29;16.50;99.90
6988;DHT22;3534;49.960;8.018;2022-10-20T12:40:17;16.50;99.90
6988;DHT22;3534;49.960;8.018;2022-10-20T12:42:46;16.40;99.90
6988;DHT22;3534;49.960;8.018;2022-10-20T12:45:27;16.40;99.90
6988;DHT22;3534;49.960;8.018;2022-10-20T12:47:56;16.40;99.90
6988;DHT22;3534;49.960;8.018;2022-10-20T12:50:30;16.40;99.90
6988;DHT22;3534;49.960;8.018;2022-10-20T12:53:09;16.40;99.90
6988;DHT22;3534;49.960;8.018;2022-10-20T12:55:37;16.40;99.90
6988;DHT22;3534;49.960;8.018;2022-10-20T12:58:23;16.40;99.90
6988;DHT22;3534;49.960;8.018;2022-10-20T13:01:08;16.40;99.90
6988;DHT22;3534;49.960;8.018;2022-10-20T13:03:39;16.30;99.90
6988;DHT22;3534;49.960;8.018;2022-10-20T13:06:39;16.30;99.90
6988;DHT22;3534;49.960;8.018;2022-10-20T13:09:18;16.30;99.90
6988;DHT22;3534;49.960;8.018;2022-10-20T13:12:00;16.30;99.90
6988;DHT22;3534;49.960;8.018;2022-10-20T13:14:51;16.30;99.90
6988;DHT22;3534;49.960;8.018;2022-10-20T13:17:29;16.30;99.90
6988;DHT22;3534;49.960;8.018;2022-10-20T13:20:05;16.30;99.90
6988;DHT22;3534;49.960;8.018;2022-10-20T13:22:44;16.30;99.90
6988;DHT22;3534;49.960;8.018;2022-10-20T13:25:45;16.30;99.90
6988;DHT22;3534;49.960;8.018;2022-10-20T13:28:17;16.30;99.90
6988;DHT22;3534;49.960;8.018;2022-10-20T13:31:01;16.30;99.90
6988;DHT22;3534;49.960;8.018;2022-10-20T13:33:36;16.30;99.90
6988;DHT22;3534;49.960;8.018;2022-10-20T13:36:08;16.30;99.90
6988;DHT22;3534;49.960;8.018;2022-10-20T13:38:41;16.30;99.90
6988;DHT22;3534;49.960;8.018;2022-10-20T13:41:17;16.30;99.90
6988;DHT22;3534;49.960;8.018;2022-10-20T13:43:48;16.30;99.90
6988;DHT22;3534;49.960;8.018;2022-10-20T13:46:27;16.20;99.90
6988;DHT22;3534;49.960;8.018;2022-10-20T13:49:12;16.20;99.90
6988;DHT22;3534;49.960;8.018;2022-10-20T13:51:46;16.20;99.90
6988;DHT22;3534;49.960;8.018;2022-10-20T13:54:20;16.20;99.90
6988;DHT22;3534;49.960;8.018;2022-10-20T13:56:48;16.20;99.90
6988;DHT22;3534;49.960;8.018;2022-10-20T13:59:19;16.20;99.90
6988;DHT22;3534;49.960;8.018;2022-10-20T14:01:53;16.20;99.90
6988;DHT22;3534;49.960;8.018;2022-10-20T14:04:26;16.20;99.90
6988;DHT22;3534;49.960;8.018;2022-10-20T14:06:54;16.20;99.90
6988;DHT22;3534;49.960;8.018;2022-10-20T14:09:23;16.20;99.90
6988;DHT22;3534;49.960;8.018;2022-10-20T14:11:52;16.20;99.90
6988;DHT22;3534;49.960;8.018;2022-10-20T14:14:21;16.10;99.90
6988;DHT22;3534;49.960;8.018;2022-10-20T14:16:52;16.10;99.90
6988;DHT22;3534;49.960;8.018;2022-10-20T14:19:21;16.10;99.90
6988;DHT22;3534;49.960;8.018;2022-10-20T14:21:54;16.10;99.90
6988;DHT22;3534;49.960;8.018;2022-10-20T14:24:27;16.10;99.90
6988;DHT22;3534;49.960;8.018;2022-10-20T14:26:55;16.00;99.90
6988;DHT22;3534;49.960;8.018;2022-10-20T14:29:24;16.00;99.90
6988;DHT22;3534;49.960;8.018;2022-10-20T14:31:51;16.00;99.90
6988;DHT22;3534;49.960;8.018;2022-10-20T14:34:20;16.00;99.90
6988;DHT22;3534;49.960;8.018;2022-10-20T14:36:48;16.00;99.90
6988;DHT22;3534;49.960;8.018;2022-10-20T14:39:27;15.90;99.90
6988;DHT22;3534;49.960;8.018;2022-10-20T14:41:57;15.90;99.90
6988;DHT22;3534;49.960;8.018;2022-10-20T14:44:25;15.90;99.90
6988;DHT22;3534;49.960;8.018;2022-10-20T14:46:54;15.90;99.90
6988;DHT22;3534;49.960;8.018;2022-10-20T14:49:24;15.90;99.90
6988;DHT22;3534;49.960;8.018;2022-10-20T14:51:56;15.80;99.90
6988;DHT22;3534;49.960;8.018;2022-10-20T14:54:30;15.80;99.90
6988;DHT22;3534;49.960;8.018;2022-10-20T14:56:58;15.80;99.90
6988;DHT22;3534;49.960;8.018;2022-10-20T14:59:27;15.80;99.90
6988;DHT22;3534;49.960;8.018;2022-10-20T15:01:59;15.80;99.90
6988;DHT22;3534;49.960;8.018;2022-10-20T15:04:32;15.80;99.90
6988;DHT22;3534;49.960;8.018;2022-10-20T15:07:04;15.70;99.90
6988;DHT22;3534;49.960;8.018;2022-10-20T15:09:37;15.70;99.90
6988;DHT22;3534;49.960;8.018;2022-10-20T15:12:06;15.70;99.90
6988;DHT22;3534;49.960;8.018;2022-10-20T15:14:33;15.70;99.90
6988;DHT22;3534;49.960;8.018;2022-10-20T15:17:00;15.70;99.90
6988;DHT22;3534;49.960;8.018;2022-10-20T15:19:33;15.70;99.90
6988;DHT22;3534;49.960;8.018;2022-10-20T15:22:08;15.70;99.90
6988;DHT22;3534;49.960;8.018;2022-10-20T15:24:36;15.70;99.90
6988;DHT22;3534;49.960;8.018;2022-10-20T15:27:04;15.70;99.90
6988;DHT22;3534;49.960;8.018;2022-10-20T15:29:31;15.70;99.90
6988;DHT22;3534;49.960;8.018;2022-10-20T15:31:58;15.70;99.90
6988;DHT22;3534;49.960;8.018;2022-10-20T15:34:25;15.70;99.90
6988;DHT22;3534;49.960;8.018;2022-10-20T15:36:52;15.70;99.90
6988;DHT22;3534;49.960;8.018;2022-10-20T15:39:19;15.70;99.90
6988;DHT22;3534;49.960;8.018;2022-10-20T15:41:47;15.70;99.90
6988;DHT22;3534;49.960;8.018;2022-10-20T15:44:15;15.70;99.90
6988;DHT22;3534;49.960;8.018;2022-10-20T15:46:44;15.70;99.90
6988;DHT22;3534;49.960;8.018;2022-10-20T15:49:11;15.70;99.90
6988;DHT22;3534;49.960;8.018;2022-10-20T15:51:39;15.70;99.90
6988;DHT22;3534;49.960;8.018;2022-10-20T15:54:07;15.70;99.90
6988;DHT22;3534;49.960;8.018;2022-10-20T15:56:34;15.70;99.90
6988;DHT22;3534;49.960;8.018;2022-10-20T15:59:02;15.60;99.90
6988;DHT22;3534;49.960;8.018;2022-10-20T16:01:28;15.70;99.90
6988;DHT22;3534;49.960;8.018;2022-10-20T16:03:55;15.60;99.90
6988;DHT22;3534;49.960;8.018;2022-10-20T16:06:23;15.60;99.90
6988;DHT22;3534;49.960;8.018;2022-10-20T16:08:50;15.60;99.90
6988;DHT22;3534;49.960;8.018;2022-10-20T16:11:19;15.60;99.90
6988;DHT22;3534;49.960;8.018;2022-10-20T16:13:47;15.60;99.90
6988;DHT22;3534;49.960;8.018;2022-10-20T16:16:17;15.60;99.90
6988;DHT22;3534;49.960;8.018;2022-10-20T16:18:44;15.60;99.90
6988;DHT22;3534;49.960;8.018;2022-10-20T16:21:12;15.50;99.90
6988;DHT22;3534;49.960;8.018;2022-10-20T16:23:39;15.50;99.90
6988;DHT22;3534;49.960;8.018;2022-10-20T16:26:07;15.50;99.90
6988;DHT22;3534;49.960;8.018;2022-10-20T16:28:35;15.50;99.90
6988;DHT22;3534;49.960;8.018;2022-10-20T16:31:03;15.50;99.90
6988;DHT22;3534;49.960;8.018;2022-10-20T16:33:32;15.40;99.90
6988;DHT22;3534;49.960;8.018;2022-10-20T16:36:01;15.40;99.90